<?xml version="1.0" encoding="UTF-8" standalone="no" ?>
<gpx xmlns="http://www.topografix.com/GPX/1/1" xmlns:xsi="http://www.w3.org/2001/XMLSchema-instance" xsi:schemaLocation="http://www.topografix.com/GPX/1/1 http://www.topografix.com/GPX/1/1/gpx.xsd" version="1.1" creator="VisuGPX - https://www.visugpx.com">
  <metadata>
    <name>12623405-CHAMBOST Ed02</name>
  </metadata>
  <trk>
    <name><![CDATA[12623405-CHAMBOST Ed02]]></name>
    <trkseg>
      <trkpt lat="46.01975" lon="4.49941">
        <ele>350</ele>
        <time>2021-03-02T15:44:30Z</time>
      </trkpt>
      <trkpt lat="46.01979" lon="4.49941">
        <ele>350</ele>
        <time>2021-03-02T15:44:35Z</time>
      </trkpt>
      <trkpt lat="46.01983" lon="4.49959">
        <ele>352</ele>
        <time>2021-03-02T15:44:53Z</time>
      </trkpt>
      <trkpt lat="46.01989" lon="4.49969">
        <ele>353</ele>
        <time>2021-03-02T15:45:05Z</time>
      </trkpt>
      <trkpt lat="46.02004" lon="4.49986">
        <ele>354</ele>
        <time>2021-03-02T15:45:31Z</time>
      </trkpt>
      <trkpt lat="46.02014" lon="4.50007">
        <ele>357</ele>
        <time>2021-03-02T15:45:54Z</time>
      </trkpt>
      <trkpt lat="46.02046" lon="4.5004">
        <ele>363</ele>
        <time>2021-03-02T15:46:47Z</time>
      </trkpt>
      <trkpt lat="46.02088" lon="4.50115">
        <ele>372</ele>
        <time>2021-03-02T15:48:16Z</time>
      </trkpt>
      <trkpt lat="46.02098" lon="4.50141">
        <ele>376</ele>
        <time>2021-03-02T15:48:44Z</time>
      </trkpt>
      <trkpt lat="46.02112" lon="4.50209">
        <ele>380</ele>
        <time>2021-03-02T15:49:49Z</time>
      </trkpt>
      <trkpt lat="46.02113" lon="4.50232">
        <ele>382</ele>
        <time>2021-03-02T15:50:11Z</time>
      </trkpt>
      <trkpt lat="46.02111" lon="4.50243">
        <ele>383</ele>
        <time>2021-03-02T15:50:21Z</time>
      </trkpt>
      <trkpt lat="46.02107" lon="4.50248">
        <ele>384</ele>
        <time>2021-03-02T15:50:28Z</time>
      </trkpt>
      <trkpt lat="46.02093" lon="4.50253">
        <ele>386</ele>
        <time>2021-03-02T15:50:47Z</time>
      </trkpt>
      <trkpt lat="46.02064" lon="4.50299">
        <ele>393</ele>
        <time>2021-03-02T15:51:45Z</time>
      </trkpt>
      <trkpt lat="46.02055" lon="4.50325">
        <ele>395</ele>
        <time>2021-03-02T15:52:12Z</time>
      </trkpt>
      <trkpt lat="46.02052" lon="4.50356">
        <ele>397</ele>
        <time>2021-03-02T15:52:41Z</time>
      </trkpt>
      <trkpt lat="46.02053" lon="4.50369">
        <ele>398</ele>
        <time>2021-03-02T15:52:53Z</time>
      </trkpt>
      <trkpt lat="46.02058" lon="4.5039">
        <ele>398</ele>
        <time>2021-03-02T15:53:14Z</time>
      </trkpt>
      <trkpt lat="46.02059" lon="4.50407">
        <ele>398</ele>
        <time>2021-03-02T15:53:29Z</time>
      </trkpt>
      <trkpt lat="46.02053" lon="4.50512">
        <ele>414</ele>
        <time>2021-03-02T15:55:07Z</time>
      </trkpt>
      <trkpt lat="46.02064" lon="4.50525">
        <ele>413</ele>
        <time>2021-03-02T15:55:26Z</time>
      </trkpt>
      <trkpt lat="46.02074" lon="4.50528">
        <ele>411</ele>
        <time>2021-03-02T15:55:40Z</time>
      </trkpt>
      <trkpt lat="46.02091" lon="4.50521">
        <ele>408</ele>
        <time>2021-03-02T15:56:03Z</time>
      </trkpt>
      <trkpt lat="46.02115" lon="4.50516">
        <ele>408</ele>
        <time>2021-03-02T15:56:36Z</time>
      </trkpt>
      <trkpt lat="46.02139" lon="4.50504">
        <ele>407</ele>
        <time>2021-03-02T15:57:10Z</time>
      </trkpt>
      <trkpt lat="46.02148" lon="4.50506">
        <ele>408</ele>
        <time>2021-03-02T15:57:22Z</time>
      </trkpt>
      <trkpt lat="46.02191" lon="4.5053">
        <ele>410</ele>
        <time>2021-03-02T15:58:23Z</time>
      </trkpt>
      <trkpt lat="46.0222" lon="4.50556">
        <ele>411</ele>
        <time>2021-03-02T15:59:09Z</time>
      </trkpt>
      <trkpt lat="46.0226" lon="4.50606">
        <ele>411</ele>
        <time>2021-03-02T16:00:20Z</time>
      </trkpt>
      <trkpt lat="46.02278" lon="4.50656">
        <ele>414</ele>
        <time>2021-03-02T16:01:12Z</time>
      </trkpt>
      <trkpt lat="46.02307" lon="4.50706">
        <ele>411</ele>
        <time>2021-03-02T16:02:12Z</time>
      </trkpt>
      <trkpt lat="46.02318" lon="4.50758">
        <ele>415</ele>
        <time>2021-03-02T16:03:02Z</time>
      </trkpt>
      <trkpt lat="46.02325" lon="4.50772">
        <ele>416</ele>
        <time>2021-03-02T16:03:18Z</time>
      </trkpt>
      <trkpt lat="46.02337" lon="4.50794">
        <ele>416</ele>
        <time>2021-03-02T16:03:44Z</time>
      </trkpt>
      <trkpt lat="46.02358" lon="4.5082">
        <ele>412</ele>
        <time>2021-03-02T16:04:21Z</time>
      </trkpt>
      <trkpt lat="46.0237" lon="4.50839">
        <ele>410</ele>
        <time>2021-03-02T16:04:45Z</time>
      </trkpt>
      <trkpt lat="46.02377" lon="4.50856">
        <ele>409</ele>
        <time>2021-03-02T16:05:03Z</time>
      </trkpt>
      <trkpt lat="46.02385" lon="4.50882">
        <ele>410</ele>
        <time>2021-03-02T16:05:30Z</time>
      </trkpt>
      <trkpt lat="46.02394" lon="4.50926">
        <ele>412</ele>
        <time>2021-03-02T16:06:12Z</time>
      </trkpt>
      <trkpt lat="46.02403" lon="4.50976">
        <ele>411</ele>
        <time>2021-03-02T16:07:00Z</time>
      </trkpt>
      <trkpt lat="46.02411" lon="4.51046">
        <ele>412</ele>
        <time>2021-03-02T16:08:06Z</time>
      </trkpt>
      <trkpt lat="46.02397" lon="4.5111">
        <ele>426</ele>
        <time>2021-03-02T16:09:08Z</time>
      </trkpt>
      <trkpt lat="46.02395" lon="4.51126">
        <ele>428</ele>
        <time>2021-03-02T16:09:23Z</time>
      </trkpt>
      <trkpt lat="46.02397" lon="4.51169">
        <ele>429</ele>
        <time>2021-03-02T16:10:03Z</time>
      </trkpt>
      <trkpt lat="46.02389" lon="4.51238">
        <ele>424</ele>
        <time>2021-03-02T16:11:08Z</time>
      </trkpt>
      <trkpt lat="46.02388" lon="4.51253">
        <ele>422</ele>
        <time>2021-03-02T16:11:22Z</time>
      </trkpt>
      <trkpt lat="46.02385" lon="4.51268">
        <ele>422</ele>
        <time>2021-03-02T16:11:36Z</time>
      </trkpt>
      <trkpt lat="46.0238" lon="4.51278">
        <ele>422</ele>
        <time>2021-03-02T16:11:48Z</time>
      </trkpt>
      <trkpt lat="46.02372" lon="4.51288">
        <ele>424</ele>
        <time>2021-03-02T16:12:02Z</time>
      </trkpt>
      <trkpt lat="46.02367" lon="4.51302">
        <ele>424</ele>
        <time>2021-03-02T16:12:16Z</time>
      </trkpt>
      <trkpt lat="46.02364" lon="4.51331">
        <ele>422</ele>
        <time>2021-03-02T16:12:44Z</time>
      </trkpt>
      <trkpt lat="46.02366" lon="4.5137">
        <ele>420</ele>
        <time>2021-03-02T16:13:20Z</time>
      </trkpt>
      <trkpt lat="46.02364" lon="4.51427">
        <ele>418</ele>
        <time>2021-03-02T16:14:13Z</time>
      </trkpt>
      <trkpt lat="46.02357" lon="4.51446">
        <ele>419</ele>
        <time>2021-03-02T16:14:33Z</time>
      </trkpt>
      <trkpt lat="46.02344" lon="4.51466">
        <ele>422</ele>
        <time>2021-03-02T16:14:58Z</time>
      </trkpt>
      <trkpt lat="46.02336" lon="4.51493">
        <ele>421</ele>
        <time>2021-03-02T16:15:25Z</time>
      </trkpt>
      <trkpt lat="46.02334" lon="4.51503">
        <ele>421</ele>
        <time>2021-03-02T16:15:35Z</time>
      </trkpt>
      <trkpt lat="46.02339" lon="4.51529">
        <ele>420</ele>
        <time>2021-03-02T16:16:00Z</time>
      </trkpt>
      <trkpt lat="46.02349" lon="4.5154">
        <ele>418</ele>
        <time>2021-03-02T16:16:17Z</time>
      </trkpt>
      <trkpt lat="46.02362" lon="4.51561">
        <ele>416</ele>
        <time>2021-03-02T16:16:43Z</time>
      </trkpt>
      <trkpt lat="46.02422" lon="4.51636">
        <ele>405</ele>
        <time>2021-03-02T16:18:29Z</time>
      </trkpt>
      <trkpt lat="46.02439" lon="4.51662">
        <ele>401</ele>
        <time>2021-03-02T16:19:02Z</time>
      </trkpt>
      <trkpt lat="46.02447" lon="4.51681">
        <ele>400</ele>
        <time>2021-03-02T16:19:22Z</time>
      </trkpt>
      <trkpt lat="46.02455" lon="4.51694">
        <ele>399</ele>
        <time>2021-03-02T16:19:39Z</time>
      </trkpt>
      <trkpt lat="46.02473" lon="4.51714">
        <ele>396</ele>
        <time>2021-03-02T16:20:09Z</time>
      </trkpt>
      <trkpt lat="46.02488" lon="4.51725">
        <ele>394</ele>
        <time>2021-03-02T16:20:31Z</time>
      </trkpt>
      <trkpt lat="46.02497" lon="4.51737">
        <ele>393</ele>
        <time>2021-03-02T16:20:48Z</time>
      </trkpt>
      <trkpt lat="46.02525" lon="4.51793">
        <ele>392</ele>
        <time>2021-03-02T16:21:52Z</time>
      </trkpt>
      <trkpt lat="46.02531" lon="4.51814">
        <ele>392</ele>
        <time>2021-03-02T16:22:13Z</time>
      </trkpt>
      <trkpt lat="46.02533" lon="4.5183">
        <ele>392</ele>
        <time>2021-03-02T16:22:28Z</time>
      </trkpt>
      <trkpt lat="46.02535" lon="4.51905">
        <ele>392</ele>
        <time>2021-03-02T16:23:37Z</time>
      </trkpt>
      <trkpt lat="46.02526" lon="4.51942">
        <ele>392</ele>
        <time>2021-03-02T16:24:14Z</time>
      </trkpt>
      <trkpt lat="46.02526" lon="4.51948">
        <ele>392</ele>
        <time>2021-03-02T16:24:19Z</time>
      </trkpt>
      <trkpt lat="46.02528" lon="4.5195">
        <ele>391</ele>
        <time>2021-03-02T16:24:22Z</time>
      </trkpt>
      <trkpt lat="46.02534" lon="4.51948">
        <ele>391</ele>
        <time>2021-03-02T16:24:31Z</time>
      </trkpt>
      <trkpt lat="46.02561" lon="4.51923">
        <ele>386</ele>
        <time>2021-03-02T16:25:13Z</time>
      </trkpt>
      <trkpt lat="46.02575" lon="4.51902">
        <ele>384</ele>
        <time>2021-03-02T16:25:40Z</time>
      </trkpt>
      <trkpt lat="46.0258" lon="4.51889">
        <ele>382</ele>
        <time>2021-03-02T16:25:54Z</time>
      </trkpt>
      <trkpt lat="46.02585" lon="4.51856">
        <ele>381</ele>
        <time>2021-03-02T16:26:26Z</time>
      </trkpt>
      <trkpt lat="46.02587" lon="4.51793">
        <ele>380</ele>
        <time>2021-03-02T16:27:24Z</time>
      </trkpt>
      <trkpt lat="46.02585" lon="4.51762">
        <ele>379</ele>
        <time>2021-03-02T16:27:53Z</time>
      </trkpt>
      <trkpt lat="46.02562" lon="4.51665">
        <ele>377</ele>
        <time>2021-03-02T16:29:28Z</time>
      </trkpt>
      <trkpt lat="46.0255" lon="4.51598">
        <ele>378</ele>
        <time>2021-03-02T16:30:32Z</time>
      </trkpt>
      <trkpt lat="46.02545" lon="4.51572">
        <ele>378</ele>
        <time>2021-03-02T16:30:57Z</time>
      </trkpt>
      <trkpt lat="46.02546" lon="4.51557">
        <ele>378</ele>
        <time>2021-03-02T16:31:11Z</time>
      </trkpt>
      <trkpt lat="46.02555" lon="4.51537">
        <ele>376</ele>
        <time>2021-03-02T16:31:33Z</time>
      </trkpt>
      <trkpt lat="46.02574" lon="4.51505">
        <ele>372</ele>
        <time>2021-03-02T16:32:12Z</time>
      </trkpt>
      <trkpt lat="46.02583" lon="4.51494">
        <ele>371</ele>
        <time>2021-03-02T16:32:28Z</time>
      </trkpt>
      <trkpt lat="46.02639" lon="4.51625">
        <ele>386</ele>
        <time>2021-03-02T16:34:50Z</time>
      </trkpt>
      <trkpt lat="46.02647" lon="4.51676">
        <ele>386</ele>
        <time>2021-03-02T16:35:39Z</time>
      </trkpt>
      <trkpt lat="46.02656" lon="4.51718">
        <ele>387</ele>
        <time>2021-03-02T16:36:19Z</time>
      </trkpt>
      <trkpt lat="46.02675" lon="4.51784">
        <ele>387</ele>
        <time>2021-03-02T16:37:26Z</time>
      </trkpt>
      <trkpt lat="46.02696" lon="4.5182">
        <ele>387</ele>
        <time>2021-03-02T16:38:09Z</time>
      </trkpt>
      <trkpt lat="46.027" lon="4.51831">
        <ele>386</ele>
        <time>2021-03-02T16:38:21Z</time>
      </trkpt>
      <trkpt lat="46.02702" lon="4.51847">
        <ele>386</ele>
        <time>2021-03-02T16:38:36Z</time>
      </trkpt>
      <trkpt lat="46.0269" lon="4.51913">
        <ele>386</ele>
        <time>2021-03-02T16:39:39Z</time>
      </trkpt>
      <trkpt lat="46.02688" lon="4.5193">
        <ele>387</ele>
        <time>2021-03-02T16:39:55Z</time>
      </trkpt>
      <trkpt lat="46.02688" lon="4.5195">
        <ele>389</ele>
        <time>2021-03-02T16:40:13Z</time>
      </trkpt>
      <trkpt lat="46.0272" lon="4.5204">
        <ele>405</ele>
        <time>2021-03-02T16:41:47Z</time>
      </trkpt>
      <trkpt lat="46.02715" lon="4.52044">
        <ele>404</ele>
        <time>2021-03-02T16:41:55Z</time>
      </trkpt>
      <trkpt lat="46.02796" lon="4.52126">
        <ele>423</ele>
        <time>2021-03-02T16:44:07Z</time>
      </trkpt>
      <trkpt lat="46.02796" lon="4.52126">
        <ele>423</ele>
        <time>2021-03-02T16:44:07Z</time>
      </trkpt>
      <trkpt lat="46.02951" lon="4.52693">
        <ele>476</ele>
        <time>2021-03-02T16:53:31Z</time>
      </trkpt>
      <trkpt lat="46.02952" lon="4.52692">
        <ele>476</ele>
        <time>2021-03-02T16:53:33Z</time>
      </trkpt>
      <trkpt lat="46.02958" lon="4.52751">
        <ele>481</ele>
        <time>2021-03-02T16:54:28Z</time>
      </trkpt>
      <trkpt lat="46.02947" lon="4.52818">
        <ele>482</ele>
        <time>2021-03-02T16:55:32Z</time>
      </trkpt>
      <trkpt lat="46.02927" lon="4.52876">
        <ele>479</ele>
        <time>2021-03-02T16:56:32Z</time>
      </trkpt>
      <trkpt lat="46.02924" lon="4.52922">
        <ele>482</ele>
        <time>2021-03-02T16:57:15Z</time>
      </trkpt>
      <trkpt lat="46.02979" lon="4.53011">
        <ele>504</ele>
        <time>2021-03-02T16:59:05Z</time>
      </trkpt>
      <trkpt lat="46.02977" lon="4.53043">
        <ele>505</ele>
        <time>2021-03-02T16:59:35Z</time>
      </trkpt>
      <trkpt lat="46.02959" lon="4.53097">
        <ele>503</ele>
        <time>2021-03-02T17:00:31Z</time>
      </trkpt>
      <trkpt lat="46.02938" lon="4.53184">
        <ele>506</ele>
        <time>2021-03-02T17:01:56Z</time>
      </trkpt>
      <trkpt lat="46.02919" lon="4.53298">
        <ele>509</ele>
        <time>2021-03-02T17:03:45Z</time>
      </trkpt>
      <trkpt lat="46.02905" lon="4.53399">
        <ele>509</ele>
        <time>2021-03-02T17:05:20Z</time>
      </trkpt>
      <trkpt lat="46.02894" lon="4.53492">
        <ele>505</ele>
        <time>2021-03-02T17:06:47Z</time>
      </trkpt>
      <trkpt lat="46.029" lon="4.53526">
        <ele>506</ele>
        <time>2021-03-02T17:07:20Z</time>
      </trkpt>
      <trkpt lat="46.02915" lon="4.53559">
        <ele>509</ele>
        <time>2021-03-02T17:07:56Z</time>
      </trkpt>
      <trkpt lat="46.02938" lon="4.53588">
        <ele>516</ele>
        <time>2021-03-02T17:08:37Z</time>
      </trkpt>
      <trkpt lat="46.0293" lon="4.53615">
        <ele>515</ele>
        <time>2021-03-02T17:09:04Z</time>
      </trkpt>
      <trkpt lat="46.02907" lon="4.53656">
        <ele>509</ele>
        <time>2021-03-02T17:09:53Z</time>
      </trkpt>
      <trkpt lat="46.02889" lon="4.53722">
        <ele>511</ele>
        <time>2021-03-02T17:10:59Z</time>
      </trkpt>
      <trkpt lat="46.02883" lon="4.53794">
        <ele>514</ele>
        <time>2021-03-02T17:12:06Z</time>
      </trkpt>
      <trkpt lat="46.02886" lon="4.53854">
        <ele>515</ele>
        <time>2021-03-02T17:13:02Z</time>
      </trkpt>
      <trkpt lat="46.02901" lon="4.539">
        <ele>517</ele>
        <time>2021-03-02T17:13:49Z</time>
      </trkpt>
      <trkpt lat="46.02933" lon="4.53947">
        <ele>524</ele>
        <time>2021-03-02T17:14:50Z</time>
      </trkpt>
      <trkpt lat="46.02938" lon="4.53959">
        <ele>525</ele>
        <time>2021-03-02T17:15:03Z</time>
      </trkpt>
      <trkpt lat="46.02958" lon="4.54031">
        <ele>531</ele>
        <time>2021-03-02T17:16:15Z</time>
      </trkpt>
      <trkpt lat="46.02964" lon="4.54046">
        <ele>533</ele>
        <time>2021-03-02T17:16:31Z</time>
      </trkpt>
      <trkpt lat="46.02995" lon="4.541">
        <ele>533</ele>
        <time>2021-03-02T17:17:36Z</time>
      </trkpt>
      <trkpt lat="46.03002" lon="4.54105">
        <ele>533</ele>
        <time>2021-03-02T17:17:46Z</time>
      </trkpt>
      <trkpt lat="46.03002" lon="4.54111">
        <ele>533</ele>
        <time>2021-03-02T17:17:52Z</time>
      </trkpt>
      <trkpt lat="46.02995" lon="4.54128">
        <ele>533</ele>
        <time>2021-03-02T17:18:10Z</time>
      </trkpt>
      <trkpt lat="46.02958" lon="4.54119">
        <ele>537</ele>
        <time>2021-03-02T17:19:00Z</time>
      </trkpt>
      <trkpt lat="46.02931" lon="4.54107">
        <ele>538</ele>
        <time>2021-03-02T17:19:38Z</time>
      </trkpt>
      <trkpt lat="46.02887" lon="4.54075">
        <ele>540</ele>
        <time>2021-03-02T17:20:44Z</time>
      </trkpt>
      <trkpt lat="46.02875" lon="4.5407">
        <ele>541</ele>
        <time>2021-03-02T17:21:00Z</time>
      </trkpt>
      <trkpt lat="46.02802" lon="4.54051">
        <ele>539</ele>
        <time>2021-03-02T17:22:39Z</time>
      </trkpt>
      <trkpt lat="46.02791" lon="4.54052">
        <ele>538</ele>
        <time>2021-03-02T17:22:54Z</time>
      </trkpt>
      <trkpt lat="46.02775" lon="4.54057">
        <ele>537</ele>
        <time>2021-03-02T17:23:16Z</time>
      </trkpt>
      <trkpt lat="46.02718" lon="4.54095">
        <ele>540</ele>
        <time>2021-03-02T17:24:40Z</time>
      </trkpt>
      <trkpt lat="46.02672" lon="4.541">
        <ele>533</ele>
        <time>2021-03-02T17:25:41Z</time>
      </trkpt>
      <trkpt lat="46.02659" lon="4.54097">
        <ele>535</ele>
        <time>2021-03-02T17:25:59Z</time>
      </trkpt>
      <trkpt lat="46.02652" lon="4.5409">
        <ele>537</ele>
        <time>2021-03-02T17:26:10Z</time>
      </trkpt>
      <trkpt lat="46.02649" lon="4.54078">
        <ele>538</ele>
        <time>2021-03-02T17:26:22Z</time>
      </trkpt>
      <trkpt lat="46.02658" lon="4.54003">
        <ele>535</ele>
        <time>2021-03-02T17:27:32Z</time>
      </trkpt>
      <trkpt lat="46.0268" lon="4.53899">
        <ele>527</ele>
        <time>2021-03-02T17:29:13Z</time>
      </trkpt>
      <trkpt lat="46.02679" lon="4.53868">
        <ele>525</ele>
        <time>2021-03-02T17:29:42Z</time>
      </trkpt>
      <trkpt lat="46.02671" lon="4.53788">
        <ele>518</ele>
        <time>2021-03-02T17:30:57Z</time>
      </trkpt>
      <trkpt lat="46.02668" lon="4.53777">
        <ele>518</ele>
        <time>2021-03-02T17:31:08Z</time>
      </trkpt>
      <trkpt lat="46.02657" lon="4.53751">
        <ele>518</ele>
        <time>2021-03-02T17:31:36Z</time>
      </trkpt>
      <trkpt lat="46.02581" lon="4.53688">
        <ele>530</ele>
        <time>2021-03-02T17:33:33Z</time>
      </trkpt>
      <trkpt lat="46.02569" lon="4.53688">
        <ele>534</ele>
        <time>2021-03-02T17:33:49Z</time>
      </trkpt>
      <trkpt lat="46.02541" lon="4.53673">
        <ele>543</ele>
        <time>2021-03-02T17:34:29Z</time>
      </trkpt>
      <trkpt lat="46.02528" lon="4.53652">
        <ele>547</ele>
        <time>2021-03-02T17:34:55Z</time>
      </trkpt>
      <trkpt lat="46.02523" lon="4.5363">
        <ele>548</ele>
        <time>2021-03-02T17:35:16Z</time>
      </trkpt>
      <trkpt lat="46.02543" lon="4.53585">
        <ele>539</ele>
        <time>2021-03-02T17:36:06Z</time>
      </trkpt>
      <trkpt lat="46.02548" lon="4.53559">
        <ele>536</ele>
        <time>2021-03-02T17:36:31Z</time>
      </trkpt>
      <trkpt lat="46.0255" lon="4.53514">
        <ele>533</ele>
        <time>2021-03-02T17:37:13Z</time>
      </trkpt>
      <trkpt lat="46.02549" lon="4.53481">
        <ele>531</ele>
        <time>2021-03-02T17:37:43Z</time>
      </trkpt>
      <trkpt lat="46.02514" lon="4.53283">
        <ele>532</ele>
        <time>2021-03-02T17:40:53Z</time>
      </trkpt>
      <trkpt lat="46.02499" lon="4.5323">
        <ele>532</ele>
        <time>2021-03-02T17:41:46Z</time>
      </trkpt>
      <trkpt lat="46.02501" lon="4.53222">
        <ele>531</ele>
        <time>2021-03-02T17:41:54Z</time>
      </trkpt>
      <trkpt lat="46.02499" lon="4.53215">
        <ele>531</ele>
        <time>2021-03-02T17:42:01Z</time>
      </trkpt>
      <trkpt lat="46.02448" lon="4.53173">
        <ele>549</ele>
        <time>2021-03-02T17:43:19Z</time>
      </trkpt>
      <trkpt lat="46.02423" lon="4.53147">
        <ele>558</ele>
        <time>2021-03-02T17:44:00Z</time>
      </trkpt>
      <trkpt lat="46.02411" lon="4.53119">
        <ele>560</ele>
        <time>2021-03-02T17:44:31Z</time>
      </trkpt>
      <trkpt lat="46.02408" lon="4.53074">
        <ele>559</ele>
        <time>2021-03-02T17:45:12Z</time>
      </trkpt>
      <trkpt lat="46.02411" lon="4.53034">
        <ele>558</ele>
        <time>2021-03-02T17:45:50Z</time>
      </trkpt>
      <trkpt lat="46.02407" lon="4.53016">
        <ele>559</ele>
        <time>2021-03-02T17:46:07Z</time>
      </trkpt>
      <trkpt lat="46.02394" lon="4.53009">
        <ele>560</ele>
        <time>2021-03-02T17:46:26Z</time>
      </trkpt>
      <trkpt lat="46.0237" lon="4.53024">
        <ele>562</ele>
        <time>2021-03-02T17:47:01Z</time>
      </trkpt>
      <trkpt lat="46.02341" lon="4.53112">
        <ele>574</ele>
        <time>2021-03-02T17:48:31Z</time>
      </trkpt>
      <trkpt lat="46.02329" lon="4.5317">
        <ele>581</ele>
        <time>2021-03-02T17:49:27Z</time>
      </trkpt>
      <trkpt lat="46.02315" lon="4.53227">
        <ele>586</ele>
        <time>2021-03-02T17:50:23Z</time>
      </trkpt>
      <trkpt lat="46.02315" lon="4.53335">
        <ele>597</ele>
        <time>2021-03-02T17:52:03Z</time>
      </trkpt>
      <trkpt lat="46.02318" lon="4.53379">
        <ele>599</ele>
        <time>2021-03-02T17:52:44Z</time>
      </trkpt>
      <trkpt lat="46.02323" lon="4.53476">
        <ele>603</ele>
        <time>2021-03-02T17:54:14Z</time>
      </trkpt>
      <trkpt lat="46.02324" lon="4.53525">
        <ele>606</ele>
        <time>2021-03-02T17:55:00Z</time>
      </trkpt>
      <trkpt lat="46.02314" lon="4.53589">
        <ele>610</ele>
        <time>2021-03-02T17:56:00Z</time>
      </trkpt>
      <trkpt lat="46.02279" lon="4.53688">
        <ele>614</ele>
        <time>2021-03-02T17:57:43Z</time>
      </trkpt>
      <trkpt lat="46.02269" lon="4.537">
        <ele>615</ele>
        <time>2021-03-02T17:58:01Z</time>
      </trkpt>
      <trkpt lat="46.02239" lon="4.53747">
        <ele>620</ele>
        <time>2021-03-02T17:59:00Z</time>
      </trkpt>
      <trkpt lat="46.02222" lon="4.53781">
        <ele>624</ele>
        <time>2021-03-02T17:59:39Z</time>
      </trkpt>
      <trkpt lat="46.02197" lon="4.53811">
        <ele>627</ele>
        <time>2021-03-02T18:00:22Z</time>
      </trkpt>
      <trkpt lat="46.02153" lon="4.53862">
        <ele>633</ele>
        <time>2021-03-02T18:01:38Z</time>
      </trkpt>
      <trkpt lat="46.02085" lon="4.53915">
        <ele>637</ele>
        <time>2021-03-02T18:03:21Z</time>
      </trkpt>
      <trkpt lat="46.02045" lon="4.53917">
        <ele>638</ele>
        <time>2021-03-02T18:04:14Z</time>
      </trkpt>
      <trkpt lat="46.02016" lon="4.53907">
        <ele>636</ele>
        <time>2021-03-02T18:04:54Z</time>
      </trkpt>
      <trkpt lat="46.01966" lon="4.53875">
        <ele>633</ele>
        <time>2021-03-02T18:06:07Z</time>
      </trkpt>
      <trkpt lat="46.01933" lon="4.53865">
        <ele>634</ele>
        <time>2021-03-02T18:06:52Z</time>
      </trkpt>
      <trkpt lat="46.01893" lon="4.53873">
        <ele>634</ele>
        <time>2021-03-02T18:07:46Z</time>
      </trkpt>
      <trkpt lat="46.01845" lon="4.53906">
        <ele>636</ele>
        <time>2021-03-02T18:08:57Z</time>
      </trkpt>
      <trkpt lat="46.01811" lon="4.53951">
        <ele>636</ele>
        <time>2021-03-02T18:09:58Z</time>
      </trkpt>
      <trkpt lat="46.01793" lon="4.53985">
        <ele>635</ele>
        <time>2021-03-02T18:10:38Z</time>
      </trkpt>
      <trkpt lat="46.01796" lon="4.54029">
        <ele>637</ele>
        <time>2021-03-02T18:11:19Z</time>
      </trkpt>
      <trkpt lat="46.01841" lon="4.54164">
        <ele>645</ele>
        <time>2021-03-02T18:13:38Z</time>
      </trkpt>
      <trkpt lat="46.01858" lon="4.5423">
        <ele>648</ele>
        <time>2021-03-02T18:14:43Z</time>
      </trkpt>
      <trkpt lat="46.01858" lon="4.54308">
        <ele>649</ele>
        <time>2021-03-02T18:15:55Z</time>
      </trkpt>
      <trkpt lat="46.01846" lon="4.54361">
        <ele>649</ele>
        <time>2021-03-02T18:16:47Z</time>
      </trkpt>
      <trkpt lat="46.01814" lon="4.5439">
        <ele>642</ele>
        <time>2021-03-02T18:17:37Z</time>
      </trkpt>
      <trkpt lat="46.01789" lon="4.54427">
        <ele>638</ele>
        <time>2021-03-02T18:18:25Z</time>
      </trkpt>
      <trkpt lat="46.01767" lon="4.54494">
        <ele>642</ele>
        <time>2021-03-02T18:19:34Z</time>
      </trkpt>
      <trkpt lat="46.01737" lon="4.54531">
        <ele>644</ele>
        <time>2021-03-02T18:20:27Z</time>
      </trkpt>
      <trkpt lat="46.01703" lon="4.54538">
        <ele>644</ele>
        <time>2021-03-02T18:21:12Z</time>
      </trkpt>
      <trkpt lat="46.01678" lon="4.54526">
        <ele>641</ele>
        <time>2021-03-02T18:21:48Z</time>
      </trkpt>
      <trkpt lat="46.01654" lon="4.54498">
        <ele>637</ele>
        <time>2021-03-02T18:22:29Z</time>
      </trkpt>
      <trkpt lat="46.01613" lon="4.54427">
        <ele>638</ele>
        <time>2021-03-02T18:23:54Z</time>
      </trkpt>
      <trkpt lat="46.01583" lon="4.54349">
        <ele>630</ele>
        <time>2021-03-02T18:25:17Z</time>
      </trkpt>
      <trkpt lat="46.01562" lon="4.54315">
        <ele>626</ele>
        <time>2021-03-02T18:25:59Z</time>
      </trkpt>
      <trkpt lat="46.0152" lon="4.54264">
        <ele>622</ele>
        <time>2021-03-02T18:27:13Z</time>
      </trkpt>
      <trkpt lat="46.01488" lon="4.5425">
        <ele>622</ele>
        <time>2021-03-02T18:27:57Z</time>
      </trkpt>
      <trkpt lat="46.0147" lon="4.54247">
        <ele>619</ele>
        <time>2021-03-02T18:28:21Z</time>
      </trkpt>
      <trkpt lat="46.01453" lon="4.5425">
        <ele>618</ele>
        <time>2021-03-02T18:28:44Z</time>
      </trkpt>
      <trkpt lat="46.01414" lon="4.54282">
        <ele>624</ele>
        <time>2021-03-02T18:29:44Z</time>
      </trkpt>
      <trkpt lat="46.01379" lon="4.54331">
        <ele>633</ele>
        <time>2021-03-02T18:30:49Z</time>
      </trkpt>
      <trkpt lat="46.01352" lon="4.54376">
        <ele>639</ele>
        <time>2021-03-02T18:31:44Z</time>
      </trkpt>
      <trkpt lat="46.01332" lon="4.54367">
        <ele>634</ele>
        <time>2021-03-02T18:32:12Z</time>
      </trkpt>
      <trkpt lat="46.01309" lon="4.54308">
        <ele>631</ele>
        <time>2021-03-02T18:33:15Z</time>
      </trkpt>
      <trkpt lat="46.01272" lon="4.542">
        <ele>626</ele>
        <time>2021-03-02T18:35:07Z</time>
      </trkpt>
      <trkpt lat="46.01258" lon="4.54143">
        <ele>621</ele>
        <time>2021-03-02T18:36:03Z</time>
      </trkpt>
      <trkpt lat="46.01228" lon="4.5415">
        <ele>626</ele>
        <time>2021-03-02T18:36:43Z</time>
      </trkpt>
      <trkpt lat="46.01099" lon="4.54193">
        <ele>640</ele>
        <time>2021-03-02T18:39:40Z</time>
      </trkpt>
      <trkpt lat="46.0107" lon="4.54195">
        <ele>643</ele>
        <time>2021-03-02T18:40:19Z</time>
      </trkpt>
      <trkpt lat="46.01035" lon="4.54175">
        <ele>644</ele>
        <time>2021-03-02T18:41:09Z</time>
      </trkpt>
      <trkpt lat="46.01004" lon="4.54164">
        <ele>647</ele>
        <time>2021-03-02T18:41:52Z</time>
      </trkpt>
      <trkpt lat="46.0096" lon="4.54145">
        <ele>656</ele>
        <time>2021-03-02T18:42:53Z</time>
      </trkpt>
      <trkpt lat="46.0095" lon="4.54134">
        <ele>660</ele>
        <time>2021-03-02T18:43:10Z</time>
      </trkpt>
      <trkpt lat="46.00964" lon="4.54116">
        <ele>660</ele>
        <time>2021-03-02T18:43:35Z</time>
      </trkpt>
      <trkpt lat="46.01039" lon="4.54059">
        <ele>651</ele>
        <time>2021-03-02T18:45:28Z</time>
      </trkpt>
      <trkpt lat="46.01066" lon="4.54011">
        <ele>650</ele>
        <time>2021-03-02T18:46:25Z</time>
      </trkpt>
      <trkpt lat="46.01075" lon="4.53931">
        <ele>652</ele>
        <time>2021-03-02T18:47:40Z</time>
      </trkpt>
      <trkpt lat="46.01075" lon="4.53849">
        <ele>657</ele>
        <time>2021-03-02T18:48:56Z</time>
      </trkpt>
      <trkpt lat="46.01097" lon="4.53759">
        <ele>658</ele>
        <time>2021-03-02T18:50:25Z</time>
      </trkpt>
      <trkpt lat="46.01119" lon="4.53734">
        <ele>649</ele>
        <time>2021-03-02T18:51:02Z</time>
      </trkpt>
      <trkpt lat="46.01135" lon="4.53708">
        <ele>643</ele>
        <time>2021-03-02T18:51:34Z</time>
      </trkpt>
      <trkpt lat="46.0113" lon="4.5368">
        <ele>643</ele>
        <time>2021-03-02T18:52:01Z</time>
      </trkpt>
      <trkpt lat="46.01113" lon="4.53658">
        <ele>645</ele>
        <time>2021-03-02T18:52:32Z</time>
      </trkpt>
      <trkpt lat="46.01067" lon="4.5361">
        <ele>638</ele>
        <time>2021-03-02T18:53:47Z</time>
      </trkpt>
      <trkpt lat="46.01011" lon="4.53582">
        <ele>638</ele>
        <time>2021-03-02T18:55:06Z</time>
      </trkpt>
      <trkpt lat="46.00937" lon="4.53576">
        <ele>635</ele>
        <time>2021-03-02T18:56:45Z</time>
      </trkpt>
      <trkpt lat="46.00898" lon="4.53583">
        <ele>636</ele>
        <time>2021-03-02T18:57:38Z</time>
      </trkpt>
      <trkpt lat="46.00847" lon="4.53578">
        <ele>631</ele>
        <time>2021-03-02T18:58:46Z</time>
      </trkpt>
      <trkpt lat="46.00762" lon="4.53589">
        <ele>629</ele>
        <time>2021-03-02T19:00:40Z</time>
      </trkpt>
      <trkpt lat="46.00734" lon="4.53588">
        <ele>628</ele>
        <time>2021-03-02T19:01:17Z</time>
      </trkpt>
      <trkpt lat="46.00693" lon="4.5358">
        <ele>627</ele>
        <time>2021-03-02T19:02:13Z</time>
      </trkpt>
      <trkpt lat="46.00653" lon="4.53583">
        <ele>630</ele>
        <time>2021-03-02T19:03:06Z</time>
      </trkpt>
      <trkpt lat="46.00622" lon="4.53596">
        <ele>634</ele>
        <time>2021-03-02T19:03:49Z</time>
      </trkpt>
      <trkpt lat="46.00592" lon="4.53604">
        <ele>636</ele>
        <time>2021-03-02T19:04:30Z</time>
      </trkpt>
      <trkpt lat="46.0055" lon="4.53603">
        <ele>640</ele>
        <time>2021-03-02T19:05:26Z</time>
      </trkpt>
      <trkpt lat="46.00521" lon="4.53586">
        <ele>642</ele>
        <time>2021-03-02T19:06:08Z</time>
      </trkpt>
      <trkpt lat="46.00465" lon="4.5354">
        <ele>642</ele>
        <time>2021-03-02T19:07:34Z</time>
      </trkpt>
      <trkpt lat="46.00443" lon="4.53536">
        <ele>640</ele>
        <time>2021-03-02T19:08:03Z</time>
      </trkpt>
      <trkpt lat="46.00431" lon="4.53509">
        <ele>641</ele>
        <time>2021-03-02T19:08:33Z</time>
      </trkpt>
      <trkpt lat="46.00422" lon="4.53495">
        <ele>642</ele>
        <time>2021-03-02T19:08:51Z</time>
      </trkpt>
      <trkpt lat="46.0043" lon="4.53538">
        <ele>638</ele>
        <time>2021-03-02T19:09:32Z</time>
      </trkpt>
      <trkpt lat="46.00431" lon="4.53551">
        <ele>637</ele>
        <time>2021-03-02T19:09:44Z</time>
      </trkpt>
      <trkpt lat="46.00429" lon="4.53561">
        <ele>636</ele>
        <time>2021-03-02T19:09:54Z</time>
      </trkpt>
      <trkpt lat="46.00413" lon="4.53601">
        <ele>633</ele>
        <time>2021-03-02T19:10:36Z</time>
      </trkpt>
      <trkpt lat="46.00404" lon="4.53614">
        <ele>631</ele>
        <time>2021-03-02T19:10:53Z</time>
      </trkpt>
      <trkpt lat="46.00352" lon="4.53677">
        <ele>617</ele>
        <time>2021-03-02T19:12:24Z</time>
      </trkpt>
      <trkpt lat="46.0034" lon="4.53696">
        <ele>614</ele>
        <time>2021-03-02T19:12:48Z</time>
      </trkpt>
      <trkpt lat="46.00333" lon="4.53711">
        <ele>612</ele>
        <time>2021-03-02T19:13:05Z</time>
      </trkpt>
      <trkpt lat="46.0033" lon="4.53728">
        <ele>612</ele>
        <time>2021-03-02T19:13:21Z</time>
      </trkpt>
      <trkpt lat="46.00327" lon="4.53749">
        <ele>612</ele>
        <time>2021-03-02T19:13:41Z</time>
      </trkpt>
      <trkpt lat="46.00328" lon="4.53757">
        <ele>612</ele>
        <time>2021-03-02T19:13:48Z</time>
      </trkpt>
      <trkpt lat="46.0034" lon="4.53783">
        <ele>613</ele>
        <time>2021-03-02T19:14:17Z</time>
      </trkpt>
      <trkpt lat="46.00361" lon="4.53812">
        <ele>617</ele>
        <time>2021-03-02T19:14:56Z</time>
      </trkpt>
      <trkpt lat="46.00365" lon="4.53826">
        <ele>617</ele>
        <time>2021-03-02T19:15:10Z</time>
      </trkpt>
      <trkpt lat="46.00367" lon="4.53838">
        <ele>617</ele>
        <time>2021-03-02T19:15:22Z</time>
      </trkpt>
      <trkpt lat="46.00365" lon="4.53883">
        <ele>617</ele>
        <time>2021-03-02T19:16:03Z</time>
      </trkpt>
      <trkpt lat="46.00363" lon="4.53897">
        <ele>617</ele>
        <time>2021-03-02T19:16:17Z</time>
      </trkpt>
      <trkpt lat="46.00347" lon="4.53949">
        <ele>615</ele>
        <time>2021-03-02T19:17:09Z</time>
      </trkpt>
      <trkpt lat="46.00345" lon="4.53962">
        <ele>615</ele>
        <time>2021-03-02T19:17:22Z</time>
      </trkpt>
      <trkpt lat="46.00348" lon="4.53969">
        <ele>617</ele>
        <time>2021-03-02T19:17:29Z</time>
      </trkpt>
      <trkpt lat="46.0035" lon="4.53988">
        <ele>621</ele>
        <time>2021-03-02T19:17:47Z</time>
      </trkpt>
      <trkpt lat="46.00348" lon="4.54007">
        <ele>623</ele>
        <time>2021-03-02T19:18:05Z</time>
      </trkpt>
      <trkpt lat="46.00349" lon="4.54017">
        <ele>626</ele>
        <time>2021-03-02T19:18:14Z</time>
      </trkpt>
      <trkpt lat="46.00343" lon="4.54038">
        <ele>628</ele>
        <time>2021-03-02T19:18:35Z</time>
      </trkpt>
      <trkpt lat="46.00327" lon="4.54052">
        <ele>628</ele>
        <time>2021-03-02T19:19:00Z</time>
      </trkpt>
      <trkpt lat="46.00254" lon="4.54059">
        <ele>625</ele>
        <time>2021-03-02T19:20:38Z</time>
      </trkpt>
      <trkpt lat="46.00232" lon="4.54071">
        <ele>625</ele>
        <time>2021-03-02T19:21:09Z</time>
      </trkpt>
      <trkpt lat="46.0021" lon="4.54095">
        <ele>627</ele>
        <time>2021-03-02T19:21:46Z</time>
      </trkpt>
      <trkpt lat="46.0019" lon="4.54138">
        <ele>634</ele>
        <time>2021-03-02T19:22:34Z</time>
      </trkpt>
      <trkpt lat="46.00177" lon="4.54141">
        <ele>631</ele>
        <time>2021-03-02T19:22:52Z</time>
      </trkpt>
      <trkpt lat="46.00165" lon="4.54153">
        <ele>631</ele>
        <time>2021-03-02T19:23:11Z</time>
      </trkpt>
      <trkpt lat="46.00119" lon="4.54187">
        <ele>625</ele>
        <time>2021-03-02T19:24:20Z</time>
      </trkpt>
      <trkpt lat="46.00115" lon="4.54186">
        <ele>623</ele>
        <time>2021-03-02T19:24:26Z</time>
      </trkpt>
      <trkpt lat="46.00114" lon="4.5416">
        <ele>618</ele>
        <time>2021-03-02T19:24:50Z</time>
      </trkpt>
      <trkpt lat="46.00123" lon="4.54146">
        <ele>617</ele>
        <time>2021-03-02T19:25:08Z</time>
      </trkpt>
      <trkpt lat="46.00123" lon="4.54138">
        <ele>615</ele>
        <time>2021-03-02T19:25:15Z</time>
      </trkpt>
      <trkpt lat="46.00126" lon="4.54122">
        <ele>612</ele>
        <time>2021-03-02T19:25:30Z</time>
      </trkpt>
      <trkpt lat="46.00128" lon="4.54105">
        <ele>608</ele>
        <time>2021-03-02T19:25:46Z</time>
      </trkpt>
      <trkpt lat="46.00139" lon="4.54071">
        <ele>602</ele>
        <time>2021-03-02T19:26:21Z</time>
      </trkpt>
      <trkpt lat="46.00156" lon="4.54032">
        <ele>595</ele>
        <time>2021-03-02T19:27:04Z</time>
      </trkpt>
      <trkpt lat="46.00167" lon="4.53999">
        <ele>588</ele>
        <time>2021-03-02T19:27:38Z</time>
      </trkpt>
      <trkpt lat="46.00177" lon="4.53983">
        <ele>585</ele>
        <time>2021-03-02T19:27:58Z</time>
      </trkpt>
      <trkpt lat="46.002" lon="4.53962">
        <ele>584</ele>
        <time>2021-03-02T19:28:34Z</time>
      </trkpt>
      <trkpt lat="46.00211" lon="4.5396">
        <ele>585</ele>
        <time>2021-03-02T19:28:49Z</time>
      </trkpt>
      <trkpt lat="46.00251" lon="4.53937">
        <ele>585</ele>
        <time>2021-03-02T19:29:46Z</time>
      </trkpt>
      <trkpt lat="46.00254" lon="4.53925">
        <ele>582</ele>
        <time>2021-03-02T19:29:58Z</time>
      </trkpt>
      <trkpt lat="46.00254" lon="4.53912">
        <ele>579</ele>
        <time>2021-03-02T19:30:10Z</time>
      </trkpt>
      <trkpt lat="46.0025" lon="4.53906">
        <ele>577</ele>
        <time>2021-03-02T19:30:18Z</time>
      </trkpt>
      <trkpt lat="46.00245" lon="4.53905">
        <ele>576</ele>
        <time>2021-03-02T19:30:25Z</time>
      </trkpt>
      <trkpt lat="46.00237" lon="4.53908">
        <ele>575</ele>
        <time>2021-03-02T19:30:36Z</time>
      </trkpt>
      <trkpt lat="46.00243" lon="4.539">
        <ele>575</ele>
        <time>2021-03-02T19:30:46Z</time>
      </trkpt>
      <trkpt lat="46.00247" lon="4.53888">
        <ele>575</ele>
        <time>2021-03-02T19:30:59Z</time>
      </trkpt>
      <trkpt lat="46.00243" lon="4.539">
        <ele>575</ele>
        <time>2021-03-02T19:31:11Z</time>
      </trkpt>
      <trkpt lat="46.00237" lon="4.53908">
        <ele>575</ele>
        <time>2021-03-02T19:31:22Z</time>
      </trkpt>
      <trkpt lat="46.00237" lon="4.53904">
        <ele>575</ele>
        <time>2021-03-02T19:31:26Z</time>
      </trkpt>
      <trkpt lat="46.00225" lon="4.539">
        <ele>572</ele>
        <time>2021-03-02T19:31:42Z</time>
      </trkpt>
      <trkpt lat="46.00204" lon="4.53883">
        <ele>566</ele>
        <time>2021-03-02T19:32:14Z</time>
      </trkpt>
      <trkpt lat="46.00185" lon="4.53873">
        <ele>561</ele>
        <time>2021-03-02T19:32:41Z</time>
      </trkpt>
      <trkpt lat="46.00173" lon="4.53872">
        <ele>558</ele>
        <time>2021-03-02T19:32:57Z</time>
      </trkpt>
      <trkpt lat="46.0017" lon="4.53869">
        <ele>557</ele>
        <time>2021-03-02T19:33:02Z</time>
      </trkpt>
      <trkpt lat="46.00164" lon="4.53869">
        <ele>556</ele>
        <time>2021-03-02T19:33:10Z</time>
      </trkpt>
      <trkpt lat="46.00157" lon="4.53873">
        <ele>557</ele>
        <time>2021-03-02T19:33:20Z</time>
      </trkpt>
      <trkpt lat="46.0014" lon="4.53876">
        <ele>558</ele>
        <time>2021-03-02T19:33:43Z</time>
      </trkpt>
      <trkpt lat="46.00131" lon="4.53881">
        <ele>559</ele>
        <time>2021-03-02T19:33:56Z</time>
      </trkpt>
      <trkpt lat="46.00124" lon="4.53881">
        <ele>559</ele>
        <time>2021-03-02T19:34:05Z</time>
      </trkpt>
      <trkpt lat="46.00122" lon="4.53875">
        <ele>558</ele>
        <time>2021-03-02T19:34:12Z</time>
      </trkpt>
      <trkpt lat="46.00125" lon="4.53872">
        <ele>557</ele>
        <time>2021-03-02T19:34:16Z</time>
      </trkpt>
      <trkpt lat="46.00124" lon="4.53866">
        <ele>556</ele>
        <time>2021-03-02T19:34:22Z</time>
      </trkpt>
      <trkpt lat="46.00107" lon="4.5385">
        <ele>553</ele>
        <time>2021-03-02T19:34:49Z</time>
      </trkpt>
      <trkpt lat="46.00097" lon="4.53842">
        <ele>552</ele>
        <time>2021-03-02T19:35:05Z</time>
      </trkpt>
      <trkpt lat="46.00097" lon="4.53836">
        <ele>550</ele>
        <time>2021-03-02T19:35:10Z</time>
      </trkpt>
      <trkpt lat="46.00086" lon="4.53821">
        <ele>548</ele>
        <time>2021-03-02T19:35:30Z</time>
      </trkpt>
      <trkpt lat="46.00077" lon="4.53817">
        <ele>548</ele>
        <time>2021-03-02T19:35:43Z</time>
      </trkpt>
      <trkpt lat="46.00075" lon="4.53814">
        <ele>547</ele>
        <time>2021-03-02T19:35:47Z</time>
      </trkpt>
      <trkpt lat="46.00069" lon="4.5381">
        <ele>547</ele>
        <time>2021-03-02T19:35:56Z</time>
      </trkpt>
      <trkpt lat="46.00055" lon="4.53804">
        <ele>546</ele>
        <time>2021-03-02T19:36:15Z</time>
      </trkpt>
      <trkpt lat="46.00024" lon="4.53787">
        <ele>542</ele>
        <time>2021-03-02T19:36:59Z</time>
      </trkpt>
      <trkpt lat="46.00017" lon="4.53778">
        <ele>539</ele>
        <time>2021-03-02T19:37:12Z</time>
      </trkpt>
      <trkpt lat="45.99996" lon="4.53762">
        <ele>534</ele>
        <time>2021-03-02T19:37:44Z</time>
      </trkpt>
      <trkpt lat="45.99991" lon="4.53763">
        <ele>534</ele>
        <time>2021-03-02T19:37:50Z</time>
      </trkpt>
      <trkpt lat="45.99978" lon="4.53754">
        <ele>532</ele>
        <time>2021-03-02T19:38:10Z</time>
      </trkpt>
      <trkpt lat="45.9997" lon="4.53752">
        <ele>531</ele>
        <time>2021-03-02T19:38:20Z</time>
      </trkpt>
      <trkpt lat="45.99952" lon="4.5374">
        <ele>530</ele>
        <time>2021-03-02T19:38:47Z</time>
      </trkpt>
      <trkpt lat="45.99952" lon="4.53722">
        <ele>529</ele>
        <time>2021-03-02T19:39:04Z</time>
      </trkpt>
      <trkpt lat="45.99949" lon="4.53716">
        <ele>528</ele>
        <time>2021-03-02T19:39:10Z</time>
      </trkpt>
      <trkpt lat="45.99941" lon="4.53711">
        <ele>527</ele>
        <time>2021-03-02T19:39:22Z</time>
      </trkpt>
      <trkpt lat="45.99936" lon="4.53702">
        <ele>526</ele>
        <time>2021-03-02T19:39:33Z</time>
      </trkpt>
      <trkpt lat="45.9993" lon="4.53706">
        <ele>526</ele>
        <time>2021-03-02T19:39:42Z</time>
      </trkpt>
      <trkpt lat="45.99907" lon="4.53692">
        <ele>523</ele>
        <time>2021-03-02T19:40:15Z</time>
      </trkpt>
      <trkpt lat="45.999" lon="4.53685">
        <ele>521</ele>
        <time>2021-03-02T19:40:26Z</time>
      </trkpt>
      <trkpt lat="45.99872" lon="4.53677">
        <ele>519</ele>
        <time>2021-03-02T19:41:04Z</time>
      </trkpt>
      <trkpt lat="45.99863" lon="4.53677">
        <ele>519</ele>
        <time>2021-03-02T19:41:16Z</time>
      </trkpt>
      <trkpt lat="45.99859" lon="4.53673">
        <ele>518</ele>
        <time>2021-03-02T19:41:23Z</time>
      </trkpt>
      <trkpt lat="45.99846" lon="4.53673">
        <ele>517</ele>
        <time>2021-03-02T19:41:40Z</time>
      </trkpt>
      <trkpt lat="45.998" lon="4.53661">
        <ele>515</ele>
        <time>2021-03-02T19:42:43Z</time>
      </trkpt>
      <trkpt lat="45.9979" lon="4.53664">
        <ele>514</ele>
        <time>2021-03-02T19:42:56Z</time>
      </trkpt>
      <trkpt lat="45.99783" lon="4.53663">
        <ele>514</ele>
        <time>2021-03-02T19:43:06Z</time>
      </trkpt>
      <trkpt lat="45.99772" lon="4.53661">
        <ele>514</ele>
        <time>2021-03-02T19:43:20Z</time>
      </trkpt>
      <trkpt lat="45.99768" lon="4.53656">
        <ele>513</ele>
        <time>2021-03-02T19:43:27Z</time>
      </trkpt>
      <trkpt lat="45.99762" lon="4.53655">
        <ele>513</ele>
        <time>2021-03-02T19:43:36Z</time>
      </trkpt>
      <trkpt lat="45.99758" lon="4.53647">
        <ele>512</ele>
        <time>2021-03-02T19:43:45Z</time>
      </trkpt>
      <trkpt lat="45.99763" lon="4.53641">
        <ele>512</ele>
        <time>2021-03-02T19:43:53Z</time>
      </trkpt>
      <trkpt lat="45.99757" lon="4.53626">
        <ele>510</ele>
        <time>2021-03-02T19:44:09Z</time>
      </trkpt>
      <trkpt lat="45.99749" lon="4.53619">
        <ele>508</ele>
        <time>2021-03-02T19:44:22Z</time>
      </trkpt>
      <trkpt lat="45.99745" lon="4.53601">
        <ele>506</ele>
        <time>2021-03-02T19:44:39Z</time>
      </trkpt>
      <trkpt lat="45.99731" lon="4.5359">
        <ele>507</ele>
        <time>2021-03-02T19:45:01Z</time>
      </trkpt>
      <trkpt lat="45.99727" lon="4.5358">
        <ele>506</ele>
        <time>2021-03-02T19:45:11Z</time>
      </trkpt>
      <trkpt lat="45.99721" lon="4.53573">
        <ele>507</ele>
        <time>2021-03-02T19:45:22Z</time>
      </trkpt>
      <trkpt lat="45.99717" lon="4.53571">
        <ele>507</ele>
        <time>2021-03-02T19:45:27Z</time>
      </trkpt>
      <trkpt lat="45.99703" lon="4.53556">
        <ele>507</ele>
        <time>2021-03-02T19:45:51Z</time>
      </trkpt>
      <trkpt lat="45.99691" lon="4.53548">
        <ele>505</ele>
        <time>2021-03-02T19:46:08Z</time>
      </trkpt>
      <trkpt lat="45.99682" lon="4.53546">
        <ele>505</ele>
        <time>2021-03-02T19:46:20Z</time>
      </trkpt>
      <trkpt lat="45.99664" lon="4.53534">
        <ele>502</ele>
        <time>2021-03-02T19:46:47Z</time>
      </trkpt>
      <trkpt lat="45.99654" lon="4.53516">
        <ele>497</ele>
        <time>2021-03-02T19:47:08Z</time>
      </trkpt>
      <trkpt lat="45.99643" lon="4.53507">
        <ele>495</ele>
        <time>2021-03-02T19:47:25Z</time>
      </trkpt>
      <trkpt lat="45.99635" lon="4.53506">
        <ele>496</ele>
        <time>2021-03-02T19:47:36Z</time>
      </trkpt>
      <trkpt lat="45.9962" lon="4.53499">
        <ele>495</ele>
        <time>2021-03-02T19:47:57Z</time>
      </trkpt>
      <trkpt lat="45.99595" lon="4.53477">
        <ele>494</ele>
        <time>2021-03-02T19:48:36Z</time>
      </trkpt>
      <trkpt lat="45.99562" lon="4.53456">
        <ele>490</ele>
        <time>2021-03-02T19:49:24Z</time>
      </trkpt>
      <trkpt lat="45.99554" lon="4.53448">
        <ele>487</ele>
        <time>2021-03-02T19:49:37Z</time>
      </trkpt>
      <trkpt lat="45.99557" lon="4.53437">
        <ele>486</ele>
        <time>2021-03-02T19:49:48Z</time>
      </trkpt>
      <trkpt lat="45.99555" lon="4.53424">
        <ele>483</ele>
        <time>2021-03-02T19:50:00Z</time>
      </trkpt>
      <trkpt lat="45.99548" lon="4.53408">
        <ele>482</ele>
        <time>2021-03-02T19:50:18Z</time>
      </trkpt>
      <trkpt lat="45.99524" lon="4.53389">
        <ele>481</ele>
        <time>2021-03-02T19:50:55Z</time>
      </trkpt>
      <trkpt lat="45.99514" lon="4.53377">
        <ele>481</ele>
        <time>2021-03-02T19:51:12Z</time>
      </trkpt>
      <trkpt lat="45.9951" lon="4.53373">
        <ele>481</ele>
        <time>2021-03-02T19:51:18Z</time>
      </trkpt>
      <trkpt lat="45.99519" lon="4.5335">
        <ele>486</ele>
        <time>2021-03-02T19:51:43Z</time>
      </trkpt>
      <trkpt lat="45.99532" lon="4.53293">
        <ele>503</ele>
        <time>2021-03-02T19:52:38Z</time>
      </trkpt>
      <trkpt lat="45.99516" lon="4.53256">
        <ele>511</ele>
        <time>2021-03-02T19:53:19Z</time>
      </trkpt>
      <trkpt lat="45.99508" lon="4.53265">
        <ele>506</ele>
        <time>2021-03-02T19:53:32Z</time>
      </trkpt>
      <trkpt lat="45.99475" lon="4.53279">
        <ele>501</ele>
        <time>2021-03-02T19:54:18Z</time>
      </trkpt>
      <trkpt lat="45.99434" lon="4.53253">
        <ele>515</ele>
        <time>2021-03-02T19:55:18Z</time>
      </trkpt>
      <trkpt lat="45.994" lon="4.53237">
        <ele>520</ele>
        <time>2021-03-02T19:56:06Z</time>
      </trkpt>
      <trkpt lat="45.99345" lon="4.53192">
        <ele>524</ele>
        <time>2021-03-02T19:57:30Z</time>
      </trkpt>
      <trkpt lat="45.99333" lon="4.53193">
        <ele>521</ele>
        <time>2021-03-02T19:57:46Z</time>
      </trkpt>
      <trkpt lat="45.99289" lon="4.53206">
        <ele>521</ele>
        <time>2021-03-02T19:58:46Z</time>
      </trkpt>
      <trkpt lat="45.99261" lon="4.53189">
        <ele>529</ele>
        <time>2021-03-02T19:59:27Z</time>
      </trkpt>
      <trkpt lat="45.99223" lon="4.5318">
        <ele>537</ele>
        <time>2021-03-02T20:00:18Z</time>
      </trkpt>
      <trkpt lat="45.99186" lon="4.53198">
        <ele>533</ele>
        <time>2021-03-02T20:01:10Z</time>
      </trkpt>
      <trkpt lat="45.99141" lon="4.53178">
        <ele>536</ele>
        <time>2021-03-02T20:02:13Z</time>
      </trkpt>
      <trkpt lat="45.99118" lon="4.53145">
        <ele>539</ele>
        <time>2021-03-02T20:02:57Z</time>
      </trkpt>
      <trkpt lat="45.99096" lon="4.5306">
        <ele>552</ele>
        <time>2021-03-02T20:04:21Z</time>
      </trkpt>
      <trkpt lat="45.99073" lon="4.52989">
        <ele>565</ele>
        <time>2021-03-02T20:05:33Z</time>
      </trkpt>
      <trkpt lat="45.99042" lon="4.52989">
        <ele>562</ele>
        <time>2021-03-02T20:06:15Z</time>
      </trkpt>
      <trkpt lat="45.99028" lon="4.5299">
        <ele>561</ele>
        <time>2021-03-02T20:06:33Z</time>
      </trkpt>
      <trkpt lat="45.99003" lon="4.52992">
        <ele>558</ele>
        <time>2021-03-02T20:07:07Z</time>
      </trkpt>
      <trkpt lat="45.98989" lon="4.52997">
        <ele>553</ele>
        <time>2021-03-02T20:07:26Z</time>
      </trkpt>
      <trkpt lat="45.9897" lon="4.52996">
        <ele>549</ele>
        <time>2021-03-02T20:07:51Z</time>
      </trkpt>
      <trkpt lat="45.9896" lon="4.52988">
        <ele>550</ele>
        <time>2021-03-02T20:08:07Z</time>
      </trkpt>
      <trkpt lat="45.98944" lon="4.5297">
        <ele>553</ele>
        <time>2021-03-02T20:08:34Z</time>
      </trkpt>
      <trkpt lat="45.98916" lon="4.52932">
        <ele>560</ele>
        <time>2021-03-02T20:09:25Z</time>
      </trkpt>
      <trkpt lat="45.98907" lon="4.52915">
        <ele>563</ele>
        <time>2021-03-02T20:09:45Z</time>
      </trkpt>
      <trkpt lat="45.989" lon="4.52897">
        <ele>567</ele>
        <time>2021-03-02T20:10:04Z</time>
      </trkpt>
      <trkpt lat="45.98876" lon="4.5286">
        <ele>573</ele>
        <time>2021-03-02T20:10:51Z</time>
      </trkpt>
      <trkpt lat="45.98867" lon="4.52853">
        <ele>573</ele>
        <time>2021-03-02T20:11:05Z</time>
      </trkpt>
      <trkpt lat="45.98846" lon="4.52855">
        <ele>568</ele>
        <time>2021-03-02T20:11:33Z</time>
      </trkpt>
      <trkpt lat="45.98823" lon="4.52864">
        <ele>560</ele>
        <time>2021-03-02T20:12:05Z</time>
      </trkpt>
      <trkpt lat="45.98811" lon="4.52864">
        <ele>558</ele>
        <time>2021-03-02T20:12:21Z</time>
      </trkpt>
      <trkpt lat="45.98795" lon="4.52861">
        <ele>556</ele>
        <time>2021-03-02T20:12:42Z</time>
      </trkpt>
      <trkpt lat="45.9878" lon="4.52855">
        <ele>556</ele>
        <time>2021-03-02T20:13:03Z</time>
      </trkpt>
      <trkpt lat="45.98716" lon="4.52816">
        <ele>554</ele>
        <time>2021-03-02T20:14:36Z</time>
      </trkpt>
      <trkpt lat="45.9869" lon="4.52792">
        <ele>552</ele>
        <time>2021-03-02T20:15:17Z</time>
      </trkpt>
      <trkpt lat="45.98659" lon="4.52769">
        <ele>548</ele>
        <time>2021-03-02T20:16:03Z</time>
      </trkpt>
      <trkpt lat="45.98632" lon="4.52732">
        <ele>542</ele>
        <time>2021-03-02T20:16:53Z</time>
      </trkpt>
      <trkpt lat="45.98595" lon="4.52693">
        <ele>532</ele>
        <time>2021-03-02T20:17:54Z</time>
      </trkpt>
      <trkpt lat="45.98586" lon="4.52678">
        <ele>529</ele>
        <time>2021-03-02T20:18:13Z</time>
      </trkpt>
      <trkpt lat="45.98568" lon="4.52661">
        <ele>526</ele>
        <time>2021-03-02T20:18:41Z</time>
      </trkpt>
      <trkpt lat="45.98543" lon="4.52648">
        <ele>521</ele>
        <time>2021-03-02T20:19:17Z</time>
      </trkpt>
      <trkpt lat="45.98532" lon="4.52638">
        <ele>519</ele>
        <time>2021-03-02T20:19:34Z</time>
      </trkpt>
      <trkpt lat="45.98505" lon="4.52604">
        <ele>514</ele>
        <time>2021-03-02T20:20:22Z</time>
      </trkpt>
      <trkpt lat="45.98499" lon="4.52596">
        <ele>513</ele>
        <time>2021-03-02T20:20:33Z</time>
      </trkpt>
      <trkpt lat="45.98513" lon="4.52584">
        <ele>514</ele>
        <time>2021-03-02T20:20:55Z</time>
      </trkpt>
      <trkpt lat="45.98537" lon="4.52569">
        <ele>515</ele>
        <time>2021-03-02T20:21:30Z</time>
      </trkpt>
      <trkpt lat="45.9855" lon="4.52555">
        <ele>516</ele>
        <time>2021-03-02T20:21:51Z</time>
      </trkpt>
      <trkpt lat="45.98552" lon="4.52545">
        <ele>516</ele>
        <time>2021-03-02T20:22:01Z</time>
      </trkpt>
      <trkpt lat="45.98552" lon="4.52531">
        <ele>515</ele>
        <time>2021-03-02T20:22:14Z</time>
      </trkpt>
      <trkpt lat="45.98551" lon="4.52515">
        <ele>514</ele>
        <time>2021-03-02T20:22:29Z</time>
      </trkpt>
      <trkpt lat="45.98546" lon="4.525">
        <ele>512</ele>
        <time>2021-03-02T20:22:44Z</time>
      </trkpt>
      <trkpt lat="45.98519" lon="4.52445">
        <ele>504</ele>
        <time>2021-03-02T20:23:47Z</time>
      </trkpt>
      <trkpt lat="45.98507" lon="4.52429">
        <ele>501</ele>
        <time>2021-03-02T20:24:09Z</time>
      </trkpt>
      <trkpt lat="45.98497" lon="4.52409">
        <ele>497</ele>
        <time>2021-03-02T20:24:31Z</time>
      </trkpt>
      <trkpt lat="45.98484" lon="4.52391">
        <ele>495</ele>
        <time>2021-03-02T20:24:55Z</time>
      </trkpt>
      <trkpt lat="45.98466" lon="4.5236">
        <ele>490</ele>
        <time>2021-03-02T20:25:33Z</time>
      </trkpt>
      <trkpt lat="45.98463" lon="4.52344">
        <ele>489</ele>
        <time>2021-03-02T20:25:48Z</time>
      </trkpt>
      <trkpt lat="45.98463" lon="4.52325">
        <ele>488</ele>
        <time>2021-03-02T20:26:06Z</time>
      </trkpt>
      <trkpt lat="45.98472" lon="4.52283">
        <ele>484</ele>
        <time>2021-03-02T20:26:47Z</time>
      </trkpt>
      <trkpt lat="45.98477" lon="4.52268">
        <ele>483</ele>
        <time>2021-03-02T20:27:02Z</time>
      </trkpt>
      <trkpt lat="45.98499" lon="4.52238">
        <ele>482</ele>
        <time>2021-03-02T20:27:43Z</time>
      </trkpt>
      <trkpt lat="45.98517" lon="4.52225">
        <ele>480</ele>
        <time>2021-03-02T20:28:09Z</time>
      </trkpt>
      <trkpt lat="45.98545" lon="4.52213">
        <ele>481</ele>
        <time>2021-03-02T20:28:48Z</time>
      </trkpt>
      <trkpt lat="45.98603" lon="4.52168">
        <ele>478</ele>
        <time>2021-03-02T20:30:16Z</time>
      </trkpt>
      <trkpt lat="45.98611" lon="4.5216">
        <ele>479</ele>
        <time>2021-03-02T20:30:29Z</time>
      </trkpt>
      <trkpt lat="45.98611" lon="4.52148">
        <ele>480</ele>
        <time>2021-03-02T20:30:40Z</time>
      </trkpt>
      <trkpt lat="45.98609" lon="4.52135">
        <ele>480</ele>
        <time>2021-03-02T20:30:53Z</time>
      </trkpt>
      <trkpt lat="45.98599" lon="4.52121">
        <ele>478</ele>
        <time>2021-03-02T20:31:11Z</time>
      </trkpt>
      <trkpt lat="45.98585" lon="4.52105">
        <ele>477</ele>
        <time>2021-03-02T20:31:35Z</time>
      </trkpt>
      <trkpt lat="45.98567" lon="4.52088">
        <ele>474</ele>
        <time>2021-03-02T20:32:04Z</time>
      </trkpt>
      <trkpt lat="45.98546" lon="4.52075">
        <ele>470</ele>
        <time>2021-03-02T20:32:35Z</time>
      </trkpt>
      <trkpt lat="45.98526" lon="4.52049">
        <ele>469</ele>
        <time>2021-03-02T20:33:11Z</time>
      </trkpt>
      <trkpt lat="45.98511" lon="4.52026">
        <ele>469</ele>
        <time>2021-03-02T20:33:40Z</time>
      </trkpt>
      <trkpt lat="45.98501" lon="4.51997">
        <ele>471</ele>
        <time>2021-03-02T20:34:10Z</time>
      </trkpt>
      <trkpt lat="45.98496" lon="4.51971">
        <ele>469</ele>
        <time>2021-03-02T20:34:35Z</time>
      </trkpt>
      <trkpt lat="45.98458" lon="4.51947">
        <ele>465</ele>
        <time>2021-03-02T20:35:30Z</time>
      </trkpt>
      <trkpt lat="45.98415" lon="4.51917">
        <ele>464</ele>
        <time>2021-03-02T20:36:34Z</time>
      </trkpt>
      <trkpt lat="45.98367" lon="4.5187">
        <ele>457</ele>
        <time>2021-03-02T20:37:51Z</time>
      </trkpt>
      <trkpt lat="45.98338" lon="4.51838">
        <ele>458</ele>
        <time>2021-03-02T20:38:40Z</time>
      </trkpt>
      <trkpt lat="45.98304" lon="4.51812">
        <ele>456</ele>
        <time>2021-03-02T20:39:32Z</time>
      </trkpt>
      <trkpt lat="45.98275" lon="4.51755">
        <ele>456</ele>
        <time>2021-03-02T20:40:37Z</time>
      </trkpt>
      <trkpt lat="45.98259" lon="4.51733">
        <ele>455</ele>
        <time>2021-03-02T20:41:07Z</time>
      </trkpt>
      <trkpt lat="45.98226" lon="4.51703">
        <ele>451</ele>
        <time>2021-03-02T20:41:59Z</time>
      </trkpt>
      <trkpt lat="45.98249" lon="4.51699">
        <ele>450</ele>
        <time>2021-03-02T20:42:30Z</time>
      </trkpt>
      <trkpt lat="45.98258" lon="4.51696">
        <ele>449</ele>
        <time>2021-03-02T20:42:42Z</time>
      </trkpt>
      <trkpt lat="45.98283" lon="4.51696">
        <ele>447</ele>
        <time>2021-03-02T20:43:15Z</time>
      </trkpt>
      <trkpt lat="45.98304" lon="4.51705">
        <ele>447</ele>
        <time>2021-03-02T20:43:45Z</time>
      </trkpt>
      <trkpt lat="45.98354" lon="4.51733">
        <ele>448</ele>
        <time>2021-03-02T20:44:56Z</time>
      </trkpt>
      <trkpt lat="45.98445" lon="4.51781">
        <ele>446</ele>
        <time>2021-03-02T20:47:05Z</time>
      </trkpt>
      <trkpt lat="45.9845" lon="4.5178">
        <ele>445</ele>
        <time>2021-03-02T20:47:12Z</time>
      </trkpt>
      <trkpt lat="45.98452" lon="4.51778">
        <ele>445</ele>
        <time>2021-03-02T20:47:15Z</time>
      </trkpt>
      <trkpt lat="45.98452" lon="4.51775">
        <ele>444</ele>
        <time>2021-03-02T20:47:18Z</time>
      </trkpt>
      <trkpt lat="45.98427" lon="4.51718">
        <ele>437</ele>
        <time>2021-03-02T20:48:21Z</time>
      </trkpt>
      <trkpt lat="45.98417" lon="4.51688">
        <ele>432</ele>
        <time>2021-03-02T20:48:52Z</time>
      </trkpt>
      <trkpt lat="45.98416" lon="4.5168">
        <ele>431</ele>
        <time>2021-03-02T20:48:59Z</time>
      </trkpt>
      <trkpt lat="45.98414" lon="4.51651">
        <ele>425</ele>
        <time>2021-03-02T20:49:26Z</time>
      </trkpt>
      <trkpt lat="45.9841" lon="4.51632">
        <ele>421</ele>
        <time>2021-03-02T20:49:45Z</time>
      </trkpt>
      <trkpt lat="45.98391" lon="4.5157">
        <ele>409</ele>
        <time>2021-03-02T20:50:47Z</time>
      </trkpt>
      <trkpt lat="45.98383" lon="4.51537">
        <ele>403</ele>
        <time>2021-03-02T20:51:20Z</time>
      </trkpt>
      <trkpt lat="45.98368" lon="4.51486">
        <ele>394</ele>
        <time>2021-03-02T20:52:11Z</time>
      </trkpt>
      <trkpt lat="45.98365" lon="4.51471">
        <ele>392</ele>
        <time>2021-03-02T20:52:26Z</time>
      </trkpt>
      <trkpt lat="45.98367" lon="4.51437">
        <ele>387</ele>
        <time>2021-03-02T20:52:57Z</time>
      </trkpt>
      <trkpt lat="45.98309" lon="4.5137">
        <ele>377</ele>
        <time>2021-03-02T20:54:37Z</time>
      </trkpt>
      <trkpt lat="45.98305" lon="4.5136">
        <ele>376</ele>
        <time>2021-03-02T20:54:47Z</time>
      </trkpt>
      <trkpt lat="45.98302" lon="4.513">
        <ele>366</ele>
        <time>2021-03-02T20:55:43Z</time>
      </trkpt>
      <trkpt lat="45.98303" lon="4.51266">
        <ele>360</ele>
        <time>2021-03-02T20:56:15Z</time>
      </trkpt>
      <trkpt lat="45.98308" lon="4.51264">
        <ele>360</ele>
        <time>2021-03-02T20:56:21Z</time>
      </trkpt>
      <trkpt lat="45.98315" lon="4.51256">
        <ele>358</ele>
        <time>2021-03-02T20:56:33Z</time>
      </trkpt>
      <trkpt lat="45.98315" lon="4.51246">
        <ele>356</ele>
        <time>2021-03-02T20:56:43Z</time>
      </trkpt>
      <trkpt lat="45.98307" lon="4.51217">
        <ele>352</ele>
        <time>2021-03-02T20:57:12Z</time>
      </trkpt>
      <trkpt lat="45.98303" lon="4.5121">
        <ele>351</ele>
        <time>2021-03-02T20:57:20Z</time>
      </trkpt>
      <trkpt lat="45.98292" lon="4.5121">
        <ele>352</ele>
        <time>2021-03-02T20:57:35Z</time>
      </trkpt>
      <trkpt lat="45.98281" lon="4.51223">
        <ele>354</ele>
        <time>2021-03-02T20:57:54Z</time>
      </trkpt>
      <trkpt lat="45.98273" lon="4.51227">
        <ele>355</ele>
        <time>2021-03-02T20:58:05Z</time>
      </trkpt>
      <trkpt lat="45.98275" lon="4.5122">
        <ele>354</ele>
        <time>2021-03-02T20:58:12Z</time>
      </trkpt>
      <trkpt lat="45.98288" lon="4.512">
        <ele>350</ele>
        <time>2021-03-02T20:58:37Z</time>
      </trkpt>
      <trkpt lat="45.98304" lon="4.51193">
        <ele>349</ele>
        <time>2021-03-02T20:59:00Z</time>
      </trkpt>
      <trkpt lat="45.98318" lon="4.51198">
        <ele>349</ele>
        <time>2021-03-02T20:59:19Z</time>
      </trkpt>
      <trkpt lat="45.98366" lon="4.51224">
        <ele>352</ele>
        <time>2021-03-02T21:00:27Z</time>
      </trkpt>
      <trkpt lat="45.98386" lon="4.51232">
        <ele>352</ele>
        <time>2021-03-02T21:00:55Z</time>
      </trkpt>
      <trkpt lat="45.98397" lon="4.51226">
        <ele>351</ele>
        <time>2021-03-02T21:01:11Z</time>
      </trkpt>
      <trkpt lat="45.98413" lon="4.51226">
        <ele>351</ele>
        <time>2021-03-02T21:01:32Z</time>
      </trkpt>
      <trkpt lat="45.98424" lon="4.51222">
        <ele>352</ele>
        <time>2021-03-02T21:01:47Z</time>
      </trkpt>
      <trkpt lat="45.98427" lon="4.51201">
        <ele>352</ele>
        <time>2021-03-02T21:02:07Z</time>
      </trkpt>
      <trkpt lat="45.98425" lon="4.51181">
        <ele>351</ele>
        <time>2021-03-02T21:02:26Z</time>
      </trkpt>
      <trkpt lat="45.9842" lon="4.51163">
        <ele>350</ele>
        <time>2021-03-02T21:02:44Z</time>
      </trkpt>
      <trkpt lat="45.98404" lon="4.5114">
        <ele>348</ele>
        <time>2021-03-02T21:03:14Z</time>
      </trkpt>
      <trkpt lat="45.98403" lon="4.5113">
        <ele>348</ele>
        <time>2021-03-02T21:03:23Z</time>
      </trkpt>
      <trkpt lat="45.98407" lon="4.51109">
        <ele>348</ele>
        <time>2021-03-02T21:03:44Z</time>
      </trkpt>
      <trkpt lat="45.98404" lon="4.51108">
        <ele>348</ele>
        <time>2021-03-02T21:03:48Z</time>
      </trkpt>
      <trkpt lat="45.98391" lon="4.51098">
        <ele>348</ele>
        <time>2021-03-02T21:04:07Z</time>
      </trkpt>
      <trkpt lat="45.98376" lon="4.51068">
        <ele>345</ele>
        <time>2021-03-02T21:04:42Z</time>
      </trkpt>
      <trkpt lat="45.98364" lon="4.51047">
        <ele>342</ele>
        <time>2021-03-02T21:05:07Z</time>
      </trkpt>
      <trkpt lat="45.9837" lon="4.51036">
        <ele>340</ele>
        <time>2021-03-02T21:05:20Z</time>
      </trkpt>
      <trkpt lat="45.98372" lon="4.51028">
        <ele>339</ele>
        <time>2021-03-02T21:05:28Z</time>
      </trkpt>
      <trkpt lat="45.98353" lon="4.50969">
        <ele>330</ele>
        <time>2021-03-02T21:06:28Z</time>
      </trkpt>
      <trkpt lat="45.98356" lon="4.50964">
        <ele>329</ele>
        <time>2021-03-02T21:06:34Z</time>
      </trkpt>
      <trkpt lat="45.98359" lon="4.50962">
        <ele>328</ele>
        <time>2021-03-02T21:06:39Z</time>
      </trkpt>
      <trkpt lat="45.98377" lon="4.50964">
        <ele>326</ele>
        <time>2021-03-02T21:07:03Z</time>
      </trkpt>
      <trkpt lat="45.9838" lon="4.50959">
        <ele>325</ele>
        <time>2021-03-02T21:07:09Z</time>
      </trkpt>
      <trkpt lat="45.98379" lon="4.50949">
        <ele>323</ele>
        <time>2021-03-02T21:07:18Z</time>
      </trkpt>
      <trkpt lat="45.98377" lon="4.50942">
        <ele>321</ele>
        <time>2021-03-02T21:07:25Z</time>
      </trkpt>
      <trkpt lat="45.98371" lon="4.50933">
        <ele>320</ele>
        <time>2021-03-02T21:07:37Z</time>
      </trkpt>
      <trkpt lat="45.98357" lon="4.50919">
        <ele>318</ele>
        <time>2021-03-02T21:07:59Z</time>
      </trkpt>
      <trkpt lat="45.98356" lon="4.50895">
        <ele>315</ele>
        <time>2021-03-02T21:08:22Z</time>
      </trkpt>
    </trkseg>
  </trk>
</gpx>